Portada
METAR-TAF:

METAR-TAF

Aeroports :

Amman, Jordània

latitud: 31-59N, longitud: 035-59E, altitud: 767 m

Observació

L'informe es va fer fa 23 minuts, a les 00:00 UTC
Vent 3 kt del Oest
Temperatura 28°C
Humitat 23%
Pressió 1012 hPa
Visibilitat 10 km o més
sense núvols per sota de 1500 mi sense presència de cumulonimbus.

METAR: OJAM 200000Z 27003KT CAVOK 28/05 Q1012 NOSIG

Hora: 03:23 (00:23 UTC)

Pronòstic

L'informe es va fer fa 1 hora i 23 minuts, a les 23:00 UTC
Pronòstic vàlid del 20 a les 00 UTC al 21 a les 06 UTC
Vent 10 kt del Oest/Nord-Oest
Visibilitat: 5000 m
calitja,

TAF: OJAM 192300Z 2000/2106 29010KT 5000 HZ NSC

Observacions i pronòstics meteorològics de més de 4000 aeroports (METAR i TAF).

Les estacions disponibles són els punts grocs i vermells al mapa.

Posi el ratolí al punt desitjat per veure el nom de l'estació.

Feu clic per veure les observacions i els pronòstics meteorològics.

Per canviar el mapa: feu clic els botons verds amb una creu de color negre per apropar; al botó verd amb un guió per allunyar la imatge; o en les fletxes verdes per a mapes adjacents.


METAR-TAF: